sensor_id;sensor_type;location;lat;lon;timestamp;P1;durP1;ratioP1;P2;durP2;ratioP2
46719;SDS011;32452;51.382;-0.002;2023-11-18T00:01:10;21.35;;;3.40;;
46719;SDS011;32452;51.382;-0.002;2023-11-18T00:03:56;8.52;;;2.03;;
46719;SDS011;32452;51.382;-0.002;2023-11-18T00:06:42;8.10;;;1.20;;
46719;SDS011;32452;51.382;-0.002;2023-11-18T00:09:31;6.57;;;1.75;;
46719;SDS011;32452;51.382;-0.002;2023-11-18T00:12:16;10.15;;;2.03;;
46719;SDS011;32452;51.382;-0.002;2023-11-18T00:15:02;8.60;;;1.70;;
46719;SDS011;32452;51.382;-0.002;2023-11-18T00:17:49;9.32;;;2.45;;
46719;SDS011;32452;51.382;-0.002;2023-11-18T00:20:34;7.38;;;2.20;;
46719;SDS011;32452;51.382;-0.002;2023-11-18T00:23:20;10.35;;;1.70;;
46719;SDS011;32452;51.382;-0.002;2023-11-18T00:26:06;15.15;;;3.00;;
46719;SDS011;32452;51.382;-0.002;2023-11-18T00:28:52;14.68;;;2.53;;
46719;SDS011;32452;51.382;-0.002;2023-11-18T00:31:38;9.90;;;2.58;;
46719;SDS011;32452;51.382;-0.002;2023-11-18T00:34:24;9.82;;;1.88;;
46719;SDS011;32452;51.382;-0.002;2023-11-18T00:37:09;13.68;;;2.50;;
46719;SDS011;32452;51.382;-0.002;2023-11-18T00:39:55;9.38;;;2.40;;
46719;SDS011;32452;51.382;-0.002;2023-11-18T00:42:40;11.70;;;2.83;;
46719;SDS011;32452;51.382;-0.002;2023-11-18T00:45:27;15.43;;;3.28;;
46719;SDS011;32452;51.382;-0.002;2023-11-18T00:48:13;14.65;;;3.03;;
46719;SDS011;32452;51.382;-0.002;2023-11-18T00:50:59;13.13;;;3.50;;
46719;SDS011;32452;51.382;-0.002;2023-11-18T00:53:45;13.68;;;2.92;;
46719;SDS011;32452;51.382;-0.002;2023-11-18T00:56:31;12.90;;;3.10;;
46719;SDS011;32452;51.382;-0.002;2023-11-18T00:59:17;10.75;;;3.65;;
46719;SDS011;32452;51.382;-0.002;2023-11-18T01:02:03;12.57;;;3.03;;
46719;SDS011;32452;51.382;-0.002;2023-11-18T01:04:49;12.20;;;4.05;;
46719;SDS011;32452;51.382;-0.002;2023-11-18T01:07:35;14.88;;;3.42;;
46719;SDS011;32452;51.382;-0.002;2023-11-18T01:10:21;12.57;;;3.08;;
46719;SDS011;32452;51.382;-0.002;2023-11-18T01:13:07;10.57;;;2.75;;
46719;SDS011;32452;51.382;-0.002;2023-11-18T01:15:53;11.10;;;2.95;;
46719;SDS011;32452;51.382;-0.002;2023-11-18T01:18:39;9.60;;;2.70;;
46719;SDS011;32452;51.382;-0.002;2023-11-18T01:21:25;10.35;;;2.45;;
46719;SDS011;32452;51.382;-0.002;2023-11-18T01:24:12;8.57;;;2.60;;
46719;SDS011;32452;51.382;-0.002;2023-11-18T01:26:58;6.80;;;2.40;;
46719;SDS011;32452;51.382;-0.002;2023-11-18T01:29:44;15.73;;;4.03;;
46719;SDS011;32452;51.382;-0.002;2023-11-18T01:32:31;9.70;;;1.88;;
46719;SDS011;32452;51.382;-0.002;2023-11-18T01:35:17;7.10;;;1.67;;
46719;SDS011;32452;51.382;-0.002;2023-11-18T01:38:02;7.07;;;1.50;;
46719;SDS011;32452;51.382;-0.002;2023-11-18T01:40:50;5.68;;;1.60;;
46719;SDS011;32452;51.382;-0.002;2023-11-18T01:43:36;5.38;;;1.75;;
46719;SDS011;32452;51.382;-0.002;2023-11-18T01:46:21;6.63;;;3.08;;
46719;SDS011;32452;51.382;-0.002;2023-11-18T01:49:08;8.48;;;2.35;;
46719;SDS011;32452;51.382;-0.002;2023-11-18T01:51:55;2.58;;;1.63;;
46719;SDS011;32452;51.382;-0.002;2023-11-18T01:54:41;9.35;;;2.03;;
46719;SDS011;32452;51.382;-0.002;2023-11-18T01:57:29;7.65;;;2.00;;
46719;SDS011;32452;51.382;-0.002;2023-11-18T02:00:15;7.47;;;2.10;;
46719;SDS011;32452;51.382;-0.002;2023-11-18T02:03:04;7.40;;;1.73;;
46719;SDS011;32452;51.382;-0.002;2023-11-18T02:05:51;4.78;;;1.58;;
46719;SDS011;32452;51.382;-0.002;2023-11-18T02:08:36;7.72;;;1.92;;
46719;SDS011;32452;51.382;-0.002;2023-11-18T02:11:27;7.57;;;1.55;;
46719;SDS011;32452;51.382;-0.002;2023-11-18T02:14:17;8.38;;;1.85;;
46719;SDS011;32452;51.382;-0.002;2023-11-18T02:17:05;14.18;;;2.20;;
46719;SDS011;32452;51.382;-0.002;2023-11-18T02:19:55;9.93;;;2.17;;
46719;SDS011;32452;51.382;-0.002;2023-11-18T02:22:42;6.90;;;1.60;;
46719;SDS011;32452;51.382;-0.002;2023-11-18T02:25:29;6.50;;;1.70;;
46719;SDS011;32452;51.382;-0.002;2023-11-18T02:28:18;9.00;;;2.97;;
46719;SDS011;32452;51.382;-0.002;2023-11-18T02:31:10;9.35;;;2.80;;
46719;SDS011;32452;51.382;-0.002;2023-11-18T02:34:21;7.32;;;2.40;;
46719;SDS011;32452;51.382;-0.002;2023-11-18T02:37:12;6.57;;;1.90;;
46719;SDS011;32452;51.382;-0.002;2023-11-18T02:40:03;10.60;;;2.45;;
46719;SDS011;32452;51.382;-0.002;2023-11-18T02:42:53;11.95;;;2.50;;
46719;SDS011;32452;51.382;-0.002;2023-11-18T02:45:40;9.82;;;2.58;;
46719;SDS011;32452;51.382;-0.002;2023-11-18T02:48:27;6.28;;;1.92;;
46719;SDS011;32452;51.382;-0.002;2023-11-18T02:51:13;4.43;;;1.52;;
46719;SDS011;32452;51.382;-0.002;2023-11-18T02:53:58;9.63;;;2.03;;
46719;SDS011;32452;51.382;-0.002;2023-11-18T02:56:44;7.03;;;1.60;;
46719;SDS011;32452;51.382;-0.002;2023-11-18T02:59:29;11.05;;;1.90;;
46719;SDS011;32452;51.382;-0.002;2023-11-18T03:02:15;6.10;;;2.58;;
46719;SDS011;32452;51.382;-0.002;2023-11-18T03:05:01;4.93;;;1.48;;
46719;SDS011;32452;51.382;-0.002;2023-11-18T03:07:47;7.72;;;1.70;;
46719;SDS011;32452;51.382;-0.002;2023-11-18T03:10:39;6.97;;;1.33;;
46719;SDS011;32452;51.382;-0.002;2023-11-18T03:13:25;7.95;;;1.50;;
46719;SDS011;32452;51.382;-0.002;2023-11-18T03:16:11;4.45;;;2.03;;
46719;SDS011;32452;51.382;-0.002;2023-11-18T03:18:57;12.93;;;3.70;;
46719;SDS011;32452;51.382;-0.002;2023-11-18T03:21:44;5.57;;;1.48;;
46719;SDS011;32452;51.382;-0.002;2023-11-18T03:24:29;8.20;;;1.30;;
46719;SDS011;32452;51.382;-0.002;2023-11-18T03:27:15;9.65;;;1.77;;
46719;SDS011;32452;51.382;-0.002;2023-11-18T03:30:00;9.38;;;1.38;;
46719;SDS011;32452;51.382;-0.002;2023-11-18T03:32:46;8.13;;;1.73;;
46719;SDS011;32452;51.382;-0.002;2023-11-18T03:35:32;8.60;;;1.60;;
46719;SDS011;32452;51.382;-0.002;2023-11-18T03:38:17;8.25;;;1.70;;
46719;SDS011;32452;51.382;-0.002;2023-11-18T03:41:03;3.95;;;1.60;;
46719;SDS011;32452;51.382;-0.002;2023-11-18T03:43:49;8.90;;;1.48;;
46719;SDS011;32452;51.382;-0.002;2023-11-18T03:46:34;6.68;;;1.40;;
46719;SDS011;32452;51.382;-0.002;2023-11-18T03:49:20;9.90;;;1.90;;
46719;SDS011;32452;51.382;-0.002;2023-11-18T03:52:05;4.10;;;1.60;;
46719;SDS011;32452;51.382;-0.002;2023-11-18T03:54:51;3.78;;;1.23;;
46719;SDS011;32452;51.382;-0.002;2023-11-18T03:57:36;5.72;;;1.60;;
46719;SDS011;32452;51.382;-0.002;2023-11-18T04:00:22;2.97;;;0.90;;
46719;SDS011;32452;51.382;-0.002;2023-11-18T04:03:07;2.30;;;0.68;;
46719;SDS011;32452;51.382;-0.002;2023-11-18T04:05:54;3.92;;;0.82;;
46719;SDS011;32452;51.382;-0.002;2023-11-18T04:08:43;5.63;;;1.65;;
46719;SDS011;32452;51.382;-0.002;2023-11-18T04:11:31;3.30;;;0.60;;
46719;SDS011;32452;51.382;-0.002;2023-11-18T04:14:17;1.63;;;0.50;;
46719;SDS011;32452;51.382;-0.002;2023-11-18T04:17:03;2.05;;;0.65;;
46719;SDS011;32452;51.382;-0.002;2023-11-18T04:19:48;1.20;;;0.57;;
46719;SDS011;32452;51.382;-0.002;2023-11-18T04:22:34;3.13;;;0.45;;
46719;SDS011;32452;51.382;-0.002;2023-11-18T04:25:19;2.22;;;0.52;;
46719;SDS011;32452;51.382;-0.002;2023-11-18T04:28:06;4.30;;;0.60;;
46719;SDS011;32452;51.382;-0.002;2023-11-18T04:30:51;1.85;;;0.40;;
46719;SDS011;32452;51.382;-0.002;2023-11-18T04:33:37;3.38;;;0.30;;
46719;SDS011;32452;51.382;-0.002;2023-11-18T04:36:22;0.52;;;0.30;;
46719;SDS011;32452;51.382;-0.002;2023-11-18T04:39:08;1.70;;;0.30;;
46719;SDS011;32452;51.382;-0.002;2023-11-18T04:41:56;1.95;;;0.40;;
46719;SDS011;32452;51.382;-0.002;2023-11-18T04:44:42;1.38;;;0.25;;
46719;SDS011;32452;51.382;-0.002;2023-11-18T04:47:27;1.05;;;0.25;;
46719;SDS011;32452;51.382;-0.002;2023-11-18T04:50:13;0.50;;;0.30;;
46719;SDS011;32452;51.382;-0.002;2023-11-18T04:52:59;2.28;;;0.40;;
46719;SDS011;32452;51.382;-0.002;2023-11-18T04:55:45;3.70;;;0.38;;
46719;SDS011;32452;51.382;-0.002;2023-11-18T04:58:30;1.25;;;0.30;;
46719;SDS011;32452;51.382;-0.002;2023-11-18T05:01:16;1.17;;;0.95;;
46719;SDS011;32452;51.382;-0.002;2023-11-18T05:04:03;2.25;;;0.32;;
46719;SDS011;32452;51.382;-0.002;2023-11-18T05:06:49;1.25;;;0.30;;
46719;SDS011;32452;51.382;-0.002;2023-11-18T05:09:34;0.47;;;0.30;;
46719;SDS011;32452;51.382;-0.002;2023-11-18T05:12:20;2.28;;;1.00;;
46719;SDS011;32452;51.382;-0.002;2023-11-18T05:15:06;3.28;;;0.43;;
46719;SDS011;32452;51.382;-0.002;2023-11-18T05:17:53;3.08;;;0.60;;
46719;SDS011;32452;51.382;-0.002;2023-11-18T05:20:38;0.60;;;0.45;;
46719;SDS011;32452;51.382;-0.002;2023-11-18T05:23:24;3.08;;;0.93;;
46719;SDS011;32452;51.382;-0.002;2023-11-18T05:26:10;1.30;;;0.50;;
46719;SDS011;32452;51.382;-0.002;2023-11-18T05:28:55;0.60;;;0.40;;
46719;SDS011;32452;51.382;-0.002;2023-11-18T05:31:41;4.10;;;0.88;;
46719;SDS011;32452;51.382;-0.002;2023-11-18T05:34:26;1.40;;;0.40;;
46719;SDS011;32452;51.382;-0.002;2023-11-18T05:37:12;3.65;;;0.70;;
46719;SDS011;32452;51.382;-0.002;2023-11-18T05:39:58;2.60;;;0.70;;
46719;SDS011;32452;51.382;-0.002;2023-11-18T05:42:51;2.05;;;0.60;;
46719;SDS011;32452;51.382;-0.002;2023-11-18T05:45:37;2.72;;;0.45;;
46719;SDS011;32452;51.382;-0.002;2023-11-18T05:48:43;4.57;;;0.40;;
46719;SDS011;32452;51.382;-0.002;2023-11-18T05:51:29;2.55;;;0.20;;
46719;SDS011;32452;51.382;-0.002;2023-11-18T05:54:16;0.80;;;0.20;;
46719;SDS011;32452;51.382;-0.002;2023-11-18T05:57:02;1.45;;;0.50;;
46719;SDS011;32452;51.382;-0.002;2023-11-18T05:59:47;3.70;;;0.60;;
46719;SDS011;32452;51.382;-0.002;2023-11-18T06:02:33;0.40;;;0.22;;
46719;SDS011;32452;51.382;-0.002;2023-11-18T06:05:21;1.00;;;0.28;;
46719;SDS011;32452;51.382;-0.002;2023-11-18T06:08:11;0.50;;;0.30;;
46719;SDS011;32452;51.382;-0.002;2023-11-18T06:10:57;0.43;;;0.30;;
46719;SDS011;32452;51.382;-0.002;2023-11-18T06:13:44;1.30;;;0.38;;
46719;SDS011;32452;51.382;-0.002;2023-11-18T06:16:34;1.60;;;0.22;;
46719;SDS011;32452;51.382;-0.002;2023-11-18T06:19:22;0.43;;;0.20;;
46719;SDS011;32452;51.382;-0.002;2023-11-18T06:22:08;3.90;;;0.85;;
46719;SDS011;32452;51.382;-0.002;2023-11-18T06:24:55;3.33;;;0.70;;
46719;SDS011;32452;51.382;-0.002;2023-11-18T06:27:44;2.25;;;0.20;;
46719;SDS011;32452;51.382;-0.002;2023-11-18T06:30:33;0.73;;;0.38;;
46719;SDS011;32452;51.382;-0.002;2023-11-18T06:33:18;1.17;;;0.38;;
46719;SDS011;32452;51.382;-0.002;2023-11-18T06:36:07;3.55;;;0.38;;
46719;SDS011;32452;51.382;-0.002;2023-11-18T06:38:59;0.75;;;0.25;;
46719;SDS011;32452;51.382;-0.002;2023-11-18T06:41:45;1.42;;;0.20;;
46719;SDS011;32452;51.382;-0.002;2023-11-18T06:44:35;1.85;;;0.38;;
46719;SDS011;32452;51.382;-0.002;2023-11-18T06:47:21;1.58;;;0.20;;
46719;SDS011;32452;51.382;-0.002;2023-11-18T06:50:07;1.63;;;0.20;;
46719;SDS011;32452;51.382;-0.002;2023-11-18T06:52:55;2.72;;;0.30;;
46719;SDS011;32452;51.382;-0.002;2023-11-18T06:55:41;0.93;;;0.38;;
46719;SDS011;32452;51.382;-0.002;2023-11-18T06:58:26;0.03;;;0.03;;
46719;SDS011;32452;51.382;-0.002;2023-11-18T07:01:13;0.10;;;0.10;;
46719;SDS011;32452;51.382;-0.002;2023-11-18T07:04:03;1.23;;;0.30;;
46719;SDS011;32452;51.382;-0.002;2023-11-18T07:06:49;0.50;;;0.30;;
46719;SDS011;32452;51.382;-0.002;2023-11-18T07:09:35;1.10;;;0.40;;
46719;SDS011;32452;51.382;-0.002;2023-11-18T07:12:21;0.22;;;0.20;;
46719;SDS011;32452;51.382;-0.002;2023-11-18T07:15:07;0.35;;;0.17;;
46719;SDS011;32452;51.382;-0.002;2023-11-18T07:17:55;0.10;;;0.10;;
46719;SDS011;32452;51.382;-0.002;2023-11-18T07:20:41;2.05;;;0.20;;
46719;SDS011;32452;51.382;-0.002;2023-11-18T07:23:27;1.38;;;0.10;;
46719;SDS011;32452;51.382;-0.002;2023-11-18T07:26:12;1.30;;;0.30;;
46719;SDS011;32452;51.382;-0.002;2023-11-18T07:29:01;0.25;;;0.10;;
46719;SDS011;32452;51.382;-0.002;2023-11-18T07:31:47;0.80;;;0.20;;
46719;SDS011;32452;51.382;-0.002;2023-11-18T07:34:34;2.15;;;0.20;;
46719;SDS011;32452;51.382;-0.002;2023-11-18T07:37:20;2.17;;;0.30;;
46719;SDS011;32452;51.382;-0.002;2023-11-18T07:40:06;0.47;;;0.10;;
46719;SDS011;32452;51.382;-0.002;2023-11-18T07:42:56;1.35;;;0.10;;
46719;SDS011;32452;51.382;-0.002;2023-11-18T07:45:42;0.13;;;0.10;;
46719;SDS011;32452;51.382;-0.002;2023-11-18T07:48:28;0.65;;;0.20;;
46719;SDS011;32452;51.382;-0.002;2023-11-18T07:51:16;0.90;;;0.20;;
46719;SDS011;32452;51.382;-0.002;2023-11-18T07:54:01;0.40;;;0.20;;
46719;SDS011;32452;51.382;-0.002;2023-11-18T07:56:48;0.30;;;0.10;;
46719;SDS011;32452;51.382;-0.002;2023-11-18T07:59:34;0.32;;;0.28;;
46719;SDS011;32452;51.382;-0.002;2023-11-18T08:02:20;0.20;;;0.20;;
46719;SDS011;32452;51.382;-0.002;2023-11-18T08:05:06;0.65;;;0.40;;
46719;SDS011;32452;51.382;-0.002;2023-11-18T08:08:01;0.32;;;0.20;;
46719;SDS011;32452;51.382;-0.002;2023-11-18T08:10:53;2.17;;;0.65;;
46719;SDS011;32452;51.382;-0.002;2023-11-18T08:13:40;0.43;;;0.22;;
46719;SDS011;32452;51.382;-0.002;2023-11-18T08:16:26;0.10;;;0.10;;
46719;SDS011;32452;51.382;-0.002;2023-11-18T08:19:13;0.73;;;0.40;;
46719;SDS011;32452;51.382;-0.002;2023-11-18T08:21:58;0.30;;;0.10;;
46719;SDS011;32452;51.382;-0.002;2023-11-18T08:24:45;0.10;;;0.10;;
46719;SDS011;32452;51.382;-0.002;2023-11-18T08:27:31;0.10;;;0.10;;
46719;SDS011;32452;51.382;-0.002;2023-11-18T08:30:17;1.58;;;0.20;;
46719;SDS011;32452;51.382;-0.002;2023-11-18T08:36:11;4.70;;;0.47;;
46719;SDS011;32452;51.382;-0.002;2023-11-18T08:38:57;2.22;;;0.20;;
46719;SDS011;32452;51.382;-0.002;2023-11-18T08:41:43;0.43;;;0.20;;
46719;SDS011;32452;51.382;-0.002;2023-11-18T08:44:29;0.30;;;0.20;;
46719;SDS011;32452;51.382;-0.002;2023-11-18T08:47:17;0.70;;;0.15;;
46719;SDS011;32452;51.382;-0.002;2023-11-18T08:50:04;0.20;;;0.10;;
46719;SDS011;32452;51.382;-0.002;2023-11-18T08:52:57;0.50;;;0.20;;
46719;SDS011;32452;51.382;-0.002;2023-11-18T08:55:44;0.28;;;0.20;;
46719;SDS011;32452;51.382;-0.002;2023-11-18T08:58:36;0.50;;;0.20;;
46719;SDS011;32452;51.382;-0.002;2023-11-18T09:01:23;0.40;;;0.40;;
46719;SDS011;32452;51.382;-0.002;2023-11-18T09:04:13;2.17;;;0.30;;
46719;SDS011;32452;51.382;-0.002;2023-11-18T09:07:00;1.38;;;0.25;;
46719;SDS011;32452;51.382;-0.002;2023-11-18T09:09:46;1.63;;;0.43;;
46719;SDS011;32452;51.382;-0.002;2023-11-18T09:12:34;0.75;;;0.30;;
46719;SDS011;32452;51.382;-0.002;2023-11-18T09:15:20;1.55;;;0.30;;
46719;SDS011;32452;51.382;-0.002;2023-11-18T09:18:08;1.20;;;0.35;;
46719;SDS011;32452;51.382;-0.002;2023-11-18T09:20:55;2.70;;;0.43;;
46719;SDS011;32452;51.382;-0.002;2023-11-18T09:23:44;1.33;;;0.30;;
46719;SDS011;32452;51.382;-0.002;2023-11-18T09:26:30;1.90;;;0.40;;
46719;SDS011;32452;51.382;-0.002;2023-11-18T09:29:16;1.38;;;0.30;;
46719;SDS011;32452;51.382;-0.002;2023-11-18T09:32:03;1.00;;;0.32;;
46719;SDS011;32452;51.382;-0.002;2023-11-18T09:34:50;2.10;;;0.40;;
46719;SDS011;32452;51.382;-0.002;2023-11-18T09:37:38;2.08;;;0.32;;
46719;SDS011;32452;51.382;-0.002;2023-11-18T09:40:25;0.38;;;0.30;;
46719;SDS011;32452;51.382;-0.002;2023-11-18T09:43:17;1.52;;;0.30;;
46719;SDS011;32452;51.382;-0.002;2023-11-18T09:46:06;2.00;;;0.47;;
46719;SDS011;32452;51.382;-0.002;2023-11-18T09:49:02;0.98;;;0.50;;
46719;SDS011;32452;51.382;-0.002;2023-11-18T09:52:00;4.50;;;0.40;;
46719;SDS011;32452;51.382;-0.002;2023-11-18T09:54:59;1.55;;;0.90;;
46719;SDS011;32452;51.382;-0.002;2023-11-18T09:57:51;1.63;;;0.70;;
46719;SDS011;32452;51.382;-0.002;2023-11-18T10:00:43;0.70;;;0.30;;
46719;SDS011;32452;51.382;-0.002;2023-11-18T10:03:31;2.85;;;0.43;;
46719;SDS011;32452;51.382;-0.002;2023-11-18T10:06:23;0.30;;;0.30;;
46719;SDS011;32452;51.382;-0.002;2023-11-18T10:09:11;3.95;;;0.55;;
46719;SDS011;32452;51.382;-0.002;2023-11-18T10:14:52;1.35;;;0.50;;
46719;SDS011;32452;51.382;-0.002;2023-11-18T10:17:39;2.40;;;1.00;;
46719;SDS011;32452;51.382;-0.002;2023-11-18T10:20:47;2.43;;;0.70;;
46719;SDS011;32452;51.382;-0.002;2023-11-18T10:23:36;2.00;;;0.52;;
46719;SDS011;32452;51.382;-0.002;2023-11-18T10:26:24;1.95;;;1.05;;
46719;SDS011;32452;51.382;-0.002;2023-11-18T10:29:10;9.05;;;1.85;;
46719;SDS011;32452;51.382;-0.002;2023-11-18T10:32:07;2.17;;;0.70;;
46719;SDS011;32452;51.382;-0.002;2023-11-18T10:34:57;3.17;;;0.60;;
46719;SDS011;32452;51.382;-0.002;2023-11-18T10:37:44;1.20;;;0.60;;
46719;SDS011;32452;51.382;-0.002;2023-11-18T10:40:33;3.10;;;0.70;;
46719;SDS011;32452;51.382;-0.002;2023-11-18T10:43:21;3.72;;;1.23;;
46719;SDS011;32452;51.382;-0.002;2023-11-18T10:46:13;0.77;;;0.40;;
46719;SDS011;32452;51.382;-0.002;2023-11-18T10:49:00;2.78;;;0.60;;
46719;SDS011;32452;51.382;-0.002;2023-11-18T10:51:46;1.27;;;0.40;;
46719;SDS011;32452;51.382;-0.002;2023-11-18T10:54:32;1.27;;;0.35;;
46719;SDS011;32452;51.382;-0.002;2023-11-18T10:57:18;2.35;;;0.47;;
46719;SDS011;32452;51.382;-0.002;2023-11-18T11:00:05;0.80;;;0.70;;
46719;SDS011;32452;51.382;-0.002;2023-11-18T11:03:04;2.97;;;0.50;;
46719;SDS011;32452;51.382;-0.002;2023-11-18T11:05:50;1.70;;;0.45;;
46719;SDS011;32452;51.382;-0.002;2023-11-18T11:08:39;2.20;;;0.60;;
46719;SDS011;32452;51.382;-0.002;2023-11-18T11:11:33;2.28;;;0.47;;
46719;SDS011;32452;51.382;-0.002;2023-11-18T11:14:32;2.40;;;0.65;;
46719;SDS011;32452;51.382;-0.002;2023-11-18T11:17:27;3.05;;;0.50;;
46719;SDS011;32452;51.382;-0.002;2023-11-18T11:20:18;2.75;;;0.40;;
46719;SDS011;32452;51.382;-0.002;2023-11-18T11:26:34;3.28;;;0.77;;
46719;SDS011;32452;51.382;-0.002;2023-11-18T11:30:02;0.88;;;0.40;;
46719;SDS011;32452;51.382;-0.002;2023-11-18T11:33:07;3.03;;;0.43;;
46719;SDS011;32452;51.382;-0.002;2023-11-18T11:36:02;2.95;;;0.40;;
46719;SDS011;32452;51.382;-0.002;2023-11-18T11:38:52;2.88;;;0.65;;
46719;SDS011;32452;51.382;-0.002;2023-11-18T11:41:44;2.47;;;0.75;;
46719;SDS011;32452;51.382;-0.002;2023-11-18T11:44:30;2.22;;;1.15;;
46719;SDS011;32452;51.382;-0.002;2023-11-18T11:47:17;1.77;;;1.00;;
46719;SDS011;32452;51.382;-0.002;2023-11-18T11:50:06;1.27;;;0.38;;
46719;SDS011;32452;51.382;-0.002;2023-11-18T11:53:13;3.97;;;0.50;;
46719;SDS011;32452;51.382;-0.002;2023-11-18T11:56:05;0.50;;;0.40;;
46719;SDS011;32452;51.382;-0.002;2023-11-18T11:58:52;0.50;;;0.50;;
46719;SDS011;32452;51.382;-0.002;2023-11-18T12:01:38;1.02;;;0.40;;
46719;SDS011;32452;51.382;-0.002;2023-11-18T12:04:32;0.93;;;0.40;;
46719;SDS011;32452;51.382;-0.002;2023-11-18T12:07:19;2.70;;;0.38;;
46719;SDS011;32452;51.382;-0.002;2023-11-18T12:10:08;2.80;;;0.70;;
46719;SDS011;32452;51.382;-0.002;2023-11-18T12:13:08;1.70;;;0.60;;
46719;SDS011;32452;51.382;-0.002;2023-11-18T12:16:01;4.03;;;0.60;;
46719;SDS011;32452;51.382;-0.002;2023-11-18T12:19:28;1.17;;;0.50;;
46719;SDS011;32452;51.382;-0.002;2023-11-18T12:22:16;1.08;;;0.30;;
46719;SDS011;32452;51.382;-0.002;2023-11-18T12:28:06;3.63;;;0.40;;
46719;SDS011;32452;51.382;-0.002;2023-11-18T12:30:53;2.22;;;0.52;;
46719;SDS011;32452;51.382;-0.002;2023-11-18T12:40:09;2.95;;;0.85;;
46719;SDS011;32452;51.382;-0.002;2023-11-18T12:43:09;2.33;;;0.70;;
46719;SDS011;32452;51.382;-0.002;2023-11-18T12:46:31;1.42;;;0.70;;
46719;SDS011;32452;51.382;-0.002;2023-11-18T12:49:09;2.72;;;0.88;;
46719;SDS011;32452;51.382;-0.002;2023-11-18T12:52:00;5.22;;;0.90;;
46719;SDS011;32452;51.382;-0.002;2023-11-18T12:54:47;1.92;;;0.82;;
46719;SDS011;32452;51.382;-0.002;2023-11-18T12:57:37;2.45;;;1.00;;
46719;SDS011;32452;51.382;-0.002;2023-11-18T13:00:23;3.30;;;0.80;;
46719;SDS011;32452;51.382;-0.002;2023-11-18T13:03:12;1.88;;;0.70;;
46719;SDS011;32452;51.382;-0.002;2023-11-18T13:06:00;2.03;;;1.00;;
46719;SDS011;32452;51.382;-0.002;2023-11-18T13:08:45;3.22;;;1.92;;
46719;SDS011;32452;51.382;-0.002;2023-11-18T13:11:31;1.05;;;0.70;;
46719;SDS011;32452;51.382;-0.002;2023-11-18T13:14:18;6.80;;;1.45;;
46719;SDS011;32452;51.382;-0.002;2023-11-18T13:17:05;3.63;;;0.95;;
46719;SDS011;32452;51.382;-0.002;2023-11-18T13:19:56;4.88;;;1.23;;
46719;SDS011;32452;51.382;-0.002;2023-11-18T13:22:43;3.60;;;1.15;;
46719;SDS011;32452;51.382;-0.002;2023-11-18T13:25:32;8.57;;;1.58;;
46719;SDS011;32452;51.382;-0.002;2023-11-18T13:28:18;5.60;;;1.10;;
46719;SDS011;32452;51.382;-0.002;2023-11-18T13:31:06;5.65;;;1.30;;
46719;SDS011;32452;51.382;-0.002;2023-11-18T13:33:55;5.20;;;1.10;;
46719;SDS011;32452;51.382;-0.002;2023-11-18T13:36:42;5.35;;;0.95;;
46719;SDS011;32452;51.382;-0.002;2023-11-18T13:39:28;7.18;;;1.20;;
46719;SDS011;32452;51.382;-0.002;2023-11-18T13:42:20;5.75;;;1.15;;
46719;SDS011;32452;51.382;-0.002;2023-11-18T13:45:08;5.13;;;1.92;;
46719;SDS011;32452;51.382;-0.002;2023-11-18T13:48:21;4.32;;;1.10;;
46719;SDS011;32452;51.382;-0.002;2023-11-18T13:51:12;5.18;;;1.65;;
46719;SDS011;32452;51.382;-0.002;2023-11-18T13:53:58;6.15;;;1.60;;
46719;SDS011;32452;51.382;-0.002;2023-11-18T13:56:44;3.97;;;1.30;;
46719;SDS011;32452;51.382;-0.002;2023-11-18T13:59:30;5.75;;;1.48;;
46719;SDS011;32452;51.382;-0.002;2023-11-18T14:02:16;9.38;;;1.23;;
46719;SDS011;32452;51.382;-0.002;2023-11-18T14:05:02;4.05;;;1.33;;
46719;SDS011;32452;51.382;-0.002;2023-11-18T14:07:54;5.57;;;1.20;;
46719;SDS011;32452;51.382;-0.002;2023-11-18T14:10:45;6.68;;;1.88;;
46719;SDS011;32452;51.382;-0.002;2023-11-18T14:13:42;4.70;;;0.90;;
46719;SDS011;32452;51.382;-0.002;2023-11-18T14:16:27;4.30;;;1.13;;
46719;SDS011;32452;51.382;-0.002;2023-11-18T14:19:13;8.77;;;1.90;;
46719;SDS011;32452;51.382;-0.002;2023-11-18T14:21:59;8.95;;;1.40;;
46719;SDS011;32452;51.382;-0.002;2023-11-18T14:24:44;7.88;;;1.60;;
46719;SDS011;32452;51.382;-0.002;2023-11-18T14:27:30;10.38;;;1.58;;
46719;SDS011;32452;51.382;-0.002;2023-11-18T14:30:16;7.70;;;1.45;;
46719;SDS011;32452;51.382;-0.002;2023-11-18T14:33:01;6.30;;;1.23;;
46719;SDS011;32452;51.382;-0.002;2023-11-18T14:35:48;7.30;;;1.38;;
46719;SDS011;32452;51.382;-0.002;2023-11-18T14:38:35;15.65;;;3.53;;
46719;SDS011;32452;51.382;-0.002;2023-11-18T14:41:22;8.10;;;1.77;;
46719;SDS011;32452;51.382;-0.002;2023-11-18T14:44:13;9.43;;;2.10;;
46719;SDS011;32452;51.382;-0.002;2023-11-18T14:47:00;4.97;;;1.38;;
46719;SDS011;32452;51.382;-0.002;2023-11-18T14:49:45;9.98;;;1.58;;
46719;SDS011;32452;51.382;-0.002;2023-11-18T14:52:31;9.38;;;1.73;;
46719;SDS011;32452;51.382;-0.002;2023-11-18T14:55:19;5.40;;;1.88;;
46719;SDS011;32452;51.382;-0.002;2023-11-18T14:58:05;10.38;;;2.08;;
46719;SDS011;32452;51.382;-0.002;2023-11-18T15:00:51;6.60;;;1.83;;
46719;SDS011;32452;51.382;-0.002;2023-11-18T15:03:41;10.80;;;2.15;;
46719;SDS011;32452;51.382;-0.002;2023-11-18T15:06:27;8.80;;;1.67;;
46719;SDS011;32452;51.382;-0.002;2023-11-18T15:09:14;8.35;;;1.42;;
46719;SDS011;32452;51.382;-0.002;2023-11-18T15:11:59;13.43;;;2.03;;
46719;SDS011;32452;51.382;-0.002;2023-11-18T15:14:45;9.73;;;1.95;;
46719;SDS011;32452;51.382;-0.002;2023-11-18T15:17:30;11.02;;;1.98;;
46719;SDS011;32452;51.382;-0.002;2023-11-18T15:20:31;9.82;;;2.67;;
46719;SDS011;32452;51.382;-0.002;2023-11-18T15:23:17;12.07;;;2.38;;
46719;SDS011;32452;51.382;-0.002;2023-11-18T15:26:06;15.40;;;2.55;;
46719;SDS011;32452;51.382;-0.002;2023-11-18T15:28:53;13.73;;;2.08;;
46719;SDS011;32452;51.382;-0.002;2023-11-18T15:31:40;12.98;;;2.85;;
46719;SDS011;32452;51.382;-0.002;2023-11-18T15:34:25;19.35;;;2.83;;
46719;SDS011;32452;51.382;-0.002;2023-11-18T15:37:11;18.75;;;3.05;;
46719;SDS011;32452;51.382;-0.002;2023-11-18T15:39:57;19.40;;;3.88;;
46719;SDS011;32452;51.382;-0.002;2023-11-18T15:42:43;17.73;;;3.67;;
46719;SDS011;32452;51.382;-0.002;2023-11-18T15:45:33;19.67;;;3.90;;
46719;SDS011;32452;51.382;-0.002;2023-11-18T15:48:19;12.43;;;3.33;;
46719;SDS011;32452;51.382;-0.002;2023-11-18T15:51:05;15.35;;;3.35;;
46719;SDS011;32452;51.382;-0.002;2023-11-18T15:53:51;12.95;;;2.67;;
46719;SDS011;32452;51.382;-0.002;2023-11-18T15:56:37;22.38;;;3.67;;
46719;SDS011;32452;51.382;-0.002;2023-11-18T15:59:23;18.17;;;3.30;;
46719;SDS011;32452;51.382;-0.002;2023-11-18T16:02:11;16.45;;;3.33;;
46719;SDS011;32452;51.382;-0.002;2023-11-18T16:04:57;14.05;;;4.05;;
46719;SDS011;32452;51.382;-0.002;2023-11-18T16:07:43;19.85;;;3.80;;
46719;SDS011;32452;51.382;-0.002;2023-11-18T16:10:30;16.90;;;3.47;;
46719;SDS011;32452;51.382;-0.002;2023-11-18T16:13:16;24.95;;;3.50;;
46719;SDS011;32452;51.382;-0.002;2023-11-18T16:16:05;22.52;;;4.03;;
46719;SDS011;32452;51.382;-0.002;2023-11-18T16:18:52;20.50;;;4.35;;
46719;SDS011;32452;51.382;-0.002;2023-11-18T16:21:39;20.75;;;4.13;;
46719;SDS011;32452;51.382;-0.002;2023-11-18T16:24:25;17.33;;;3.78;;
46719;SDS011;32452;51.382;-0.002;2023-11-18T16:27:11;26.80;;;4.68;;
46719;SDS011;32452;51.382;-0.002;2023-11-18T16:29:56;24.08;;;4.88;;
46719;SDS011;32452;51.382;-0.002;2023-11-18T16:32:42;24.13;;;3.45;;
46719;SDS011;32452;51.382;-0.002;2023-11-18T16:35:32;18.40;;;3.88;;
46719;SDS011;32452;51.382;-0.002;2023-11-18T16:38:19;17.75;;;4.18;;
46719;SDS011;32452;51.382;-0.002;2023-11-18T16:41:04;20.75;;;4.68;;
46719;SDS011;32452;51.382;-0.002;2023-11-18T16:43:50;22.27;;;4.15;;
46719;SDS011;32452;51.382;-0.002;2023-11-18T16:46:39;14.75;;;4.78;;
46719;SDS011;32452;51.382;-0.002;2023-11-18T16:49:25;20.23;;;4.20;;
46719;SDS011;32452;51.382;-0.002;2023-11-18T16:52:11;18.35;;;4.68;;